Time;durP1;ratioP1;P1;durP2;ratioP2;P2;SDS_P1;SDS_P2;PMS_P1;PMS_P2;Temp;Humidity;BMP_temperature;BMP_pressure;BME280_temperature;BME280_humidity;BME280_pressure;Samples;Min_cycle;Max_cycle;Signal;HPM_P1;HPM_P2
2023/06/28 00:00:08;;;;;;;2.80;1.20;;;22.00;98.20;;;;;;4976215;28;20030;-38
2023/06/28 00:02:35;;;;;;;3.17;1.40;;;22.00;98.20;;;;;;4975882;28;20039;-38
2023/06/28 00:05:07;;;;;;;2.40;1.35;;;22.00;98.30;;;;;;4975611;28;20023;-37
2023/06/28 00:07:33;;;;;;;4.35;1.33;;;22.00;98.30;;;;;;4975795;28;20483;-37
2023/06/28 00:09:59;;;;;;;2.45;1.38;;;22.00;98.30;;;;;;4975792;28;20023;-37
2023/06/28 00:12:26;;;;;;;2.05;1.10;;;22.00;98.20;;;;;;4975863;28;20367;-38
2023/06/28 00:14:53;;;;;;;2.40;1.20;;;22.00;98.20;;;;;;4975690;28;20457;-37
2023/06/28 00:17:19;;;;;;;2.95;1.10;;;22.00;98.30;;;;;;4975878;28;20026;-38
2023/06/28 00:19:48;;;;;;;2.17;1.33;;;22.00;98.30;;;;;;4975722;28;20051;-37
2023/06/28 00:22:14;;;;;;;2.72;1.35;;;22.00;98.30;;;;;;4975447;28;20430;-37
2023/06/28 00:24:40;;;;;;;2.00;1.35;;;22.00;98.30;;;;;;4975292;28;20027;-37
2023/06/28 00:27:06;;;;;;;2.85;1.45;;;21.90;98.30;;;;;;4975394;28;20089;-35
2023/06/28 00:29:31;;;;;;;2.40;1.48;;;22.00;98.30;;;;;;4975539;28;20078;-38
2023/06/28 00:31:57;;;;;;;4.22;1.30;;;21.90;98.20;;;;;;4973995;28;20027;-39
2023/06/28 00:34:23;;;;;;;2.65;1.20;;;22.00;98.30;;;;;;4974988;28;20111;-37
2023/06/28 00:36:48;;;;;;;3.22;1.50;;;22.00;98.30;;;;;;4975325;28;20042;-39
2023/06/28 00:39:14;;;;;;;3.22;1.17;;;22.00;98.30;;;;;;4975259;28;20030;-36
2023/06/28 00:41:39;;;;;;;3.17;1.52;;;21.90;98.20;;;;;;4974864;28;20034;-36
2023/06/28 00:44:06;;;;;;;2.33;1.27;;;21.90;98.30;;;;;;4975314;28;20485;-38
2023/06/28 00:46:32;;;;;;;2.50;1.20;;;21.90;98.30;;;;;;4975815;28;20109;-38
2023/06/28 00:48:58;;;;;;;2.45;1.33;;;21.90;98.40;;;;;;4976852;28;20475;-37
2023/06/28 00:51:26;;;;;;;2.53;1.17;;;21.90;98.40;;;;;;4974759;28;20098;-36
2023/06/28 00:53:52;;;;;;;2.25;1.27;;;21.90;98.40;;;;;;4974941;28;20367;-38
2023/06/28 00:56:18;;;;;;;2.15;1.27;;;21.90;98.40;;;;;;4974694;28;20037;-37
2023/06/28 00:58:44;;;;;;;3.15;1.52;;;21.90;98.40;;;;;;4975075;28;20039;-36
2023/06/28 01:01:10;;;;;;;2.40;1.38;;;22.00;98.40;;;;;;4974718;28;20042;-38
2023/06/28 01:03:36;;;;;;;2.10;1.00;;;21.90;98.40;;;;;;4975730;28;20019;-38
2023/06/28 01:06:03;;;;;;;2.00;1.10;;;22.00;98.40;;;;;;4975675;28;20031;-38
2023/06/28 01:08:29;;;;;;;2.65;1.20;;;21.90;98.40;;;;;;4974656;28;20023;-37
2023/06/28 01:10:55;;;;;;;2.10;1.30;;;21.90;98.40;;;;;;4974503;28;20062;-37
2023/06/28 01:13:22;;;;;;;2.83;1.20;;;21.90;98.40;;;;;;4974905;28;20065;-37
2023/06/28 01:15:48;;;;;;;2.03;1.20;;;21.90;98.40;;;;;;4974331;28;20027;-37
2023/06/28 01:18:14;;;;;;;2.15;1.20;;;21.90;98.40;;;;;;4974412;28;20102;-38
2023/06/28 01:20:40;;;;;;;2.30;1.30;;;21.90;98.40;;;;;;4974079;28;20039;-38
2023/06/28 01:23:06;;;;;;;2.80;1.13;;;21.90;98.40;;;;;;4974443;28;20024;-38
2023/06/28 01:25:31;;;;;;;1.75;1.13;;;21.90;98.40;;;;;;4974845;28;20494;-37
2023/06/28 01:27:58;;;;;;;2.90;1.48;;;21.90;98.40;;;;;;4974321;28;20034;-36
2023/06/28 01:30:25;;;;;;;2.67;1.27;;;21.90;98.40;;;;;;4974037;28;20038;-37
2023/06/28 01:32:51;;;;;;;1.95;1.08;;;21.90;98.40;;;;;;4974701;28;20099;-37
2023/06/28 01:35:17;;;;;;;2.70;1.30;;;21.90;98.40;;;;;;4974903;28;20034;-39
2023/06/28 01:37:44;;;;;;;2.78;1.40;;;21.90;98.40;;;;;;4974743;28;20435;-36
2023/06/28 01:40:11;;;;;;;2.58;1.30;;;21.90;98.40;;;;;;4974926;28;20055;-37
2023/06/28 01:42:38;;;;;;;3.60;1.30;;;21.90;98.40;;;;;;4974481;28;20165;-38
2023/06/28 01:45:05;;;;;;;3.65;1.58;;;21.90;98.40;;;;;;4973748;28;20066;-36
2023/06/28 01:47:31;;;;;;;2.33;1.30;;;21.90;98.40;;;;;;4973813;28;20150;-37
2023/06/28 01:49:58;;;;;;;3.50;1.15;;;21.80;98.40;;;;;;4974372;28;20481;-35
2023/06/28 01:52:23;;;;;;;1.85;1.30;;;21.80;98.40;;;;;;4973988;28;20070;-37
2023/06/28 01:54:49;;;;;;;2.85;1.50;;;21.80;98.40;;;;;;4973497;28;20097;-37
2023/06/28 01:57:16;;;;;;;2.90;1.33;;;21.80;98.40;;;;;;4973410;28;20410;-35
2023/06/28 01:59:41;;;;;;;2.28;1.35;;;21.80;98.40;;;;;;4973667;28;20037;-38
2023/06/28 02:02:07;;;;;;;1.67;1.27;;;21.80;98.40;;;;;;4973486;28;20035;-39
2023/06/28 02:04:33;;;;;;;2.08;1.15;;;21.80;98.40;;;;;;4973542;28;20446;-37
2023/06/28 02:06:58;;;;;;;2.00;1.08;;;21.80;98.50;;;;;;4973551;28;20033;-38
2023/06/28 02:09:24;;;;;;;2.03;1.23;;;21.80;98.50;;;;;;4973160;28;20035;-38
2023/06/28 02:11:49;;;;;;;3.00;1.27;;;21.80;98.50;;;;;;4973224;28;20050;-37
2023/06/28 02:14:19;;;;;;;1.98;1.20;;;21.80;98.50;;;;;;4973232;28;20471;-36
2023/06/28 02:16:45;;;;;;;2.28;1.40;;;21.80;98.50;;;;;;4973193;28;20086;-37
2023/06/28 02:19:15;;;;;;;2.38;1.25;;;21.80;98.50;;;;;;4973006;28;20035;-37
2023/06/28 02:21:41;;;;;;;4.38;1.52;;;21.80;98.50;;;;;;4973729;28;20174;-39
2023/06/28 02:24:08;;;;;;;2.75;1.35;;;21.80;98.50;;;;;;4973110;28;20037;-38
2023/06/28 02:26:35;;;;;;;3.83;1.20;;;21.80;98.50;;;;;;4973019;28;20418;-35
2023/06/28 02:29:01;;;;;;;2.67;1.15;;;21.80;98.50;;;;;;4973189;28;20089;-36
2023/06/28 02:31:26;;;;;;;4.20;1.20;;;21.80;98.50;;;;;;4973409;28;20422;-38
2023/06/28 02:33:52;;;;;;;2.25;1.20;;;21.80;98.50;;;;;;4972861;28;20043;-37
2023/06/28 02:36:17;;;;;;;4.72;1.10;;;21.80;98.50;;;;;;4973922;28;20031;-37
2023/06/28 02:38:43;;;;;;;2.55;1.17;;;21.80;98.40;;;;;;4973328;28;20027;-36
2023/06/28 02:41:10;;;;;;;1.85;1.20;;;21.80;98.40;;;;;;4973428;28;20445;-38
2023/06/28 02:43:36;;;;;;;2.05;1.20;;;21.80;98.30;;;;;;4972909;28;20027;-36
2023/06/28 02:46:01;;;;;;;2.58;1.30;;;21.80;98.30;;;;;;4972824;28;20026;-36
2023/06/28 02:48:27;;;;;;;2.50;1.30;;;21.80;98.40;;;;;;4972742;28;20023;-38
2023/06/28 02:50:52;;;;;;;2.33;1.30;;;21.80;98.40;;;;;;4972733;28;20146;-38
2023/06/28 02:53:18;;;;;;;2.08;1.10;;;21.80;98.40;;;;;;4973283;28;20049;-38
2023/06/28 02:55:43;;;;;;;6.30;1.30;;;21.80;98.40;;;;;;4972574;28;20509;-38
2023/06/28 02:58:09;;;;;;;1.83;1.17;;;21.80;98.40;;;;;;4972661;28;20027;-38
2023/06/28 03:00:37;;;;;;;2.15;1.20;;;21.80;98.50;;;;;;4973146;28;20470;-38
2023/06/28 03:03:03;;;;;;;2.78;1.10;;;21.80;98.50;;;;;;4972548;28;20030;-37
2023/06/28 03:05:29;;;;;;;2.30;1.20;;;21.80;98.40;;;;;;4972592;28;20478;-38
2023/06/28 03:07:54;;;;;;;3.33;1.48;;;21.70;98.40;;;;;;4972450;28;20027;-37
2023/06/28 03:10:20;;;;;;;2.03;1.10;;;21.70;98.30;;;;;;4972255;28;20037;-38
2023/06/28 03:12:46;;;;;;;2.42;1.33;;;21.80;98.30;;;;;;4972467;28;20446;-36
2023/06/28 03:15:11;;;;;;;3.47;1.30;;;21.70;98.30;;;;;;4972391;28;20027;-38
2023/06/28 03:17:37;;;;;;;1.75;1.10;;;21.70;98.30;;;;;;4972800;28;20448;-38
2023/06/28 03:20:04;;;;;;;2.80;1.52;;;21.80;98.40;;;;;;4972195;28;20113;-41
2023/06/28 03:22:29;;;;;;;1.80;1.20;;;21.70;98.40;;;;;;4972347;28;20023;-38
2023/06/28 03:24:55;;;;;;;2.42;1.20;;;21.70;98.40;;;;;;4972755;28;20029;-37
2023/06/28 03:27:21;;;;;;;2.35;1.30;;;21.70;98.40;;;;;;4973316;28;20509;-35
2023/06/28 03:29:46;;;;;;;2.30;1.15;;;21.70;98.40;;;;;;4972516;28;20485;-37
2023/06/28 03:32:12;;;;;;;3.35;1.30;;;21.70;98.40;;;;;;4972288;28;20102;-38
2023/06/28 03:34:37;;;;;;;3.40;1.52;;;21.70;98.40;;;;;;4972222;28;20031;-37
2023/06/28 03:37:03;;;;;;;2.15;1.13;;;21.70;98.40;;;;;;4972489;28;20030;-37
2023/06/28 03:39:29;;;;;;;2.22;1.27;;;21.70;98.40;;;;;;4971996;28;20499;-36
2023/06/28 03:41:54;;;;;;;3.13;1.25;;;21.70;98.40;;;;;;4972378;28;20038;-38
2023/06/28 03:44:20;;;;;;;1.85;1.10;;;21.70;98.40;;;;;;4972478;28;20479;-39
2023/06/28 03:46:46;;;;;;;1.60;1.10;;;21.70;98.30;;;;;;4972887;28;20030;-36
2023/06/28 03:49:11;;;;;;;3.00;1.40;;;21.70;98.40;;;;;;4972293;28;20026;-35
2023/06/28 03:51:37;;;;;;;1.80;1.00;;;21.70;98.40;;;;;;4972545;28;20030;-38
2023/06/28 03:54:03;;;;;;;3.08;1.45;;;21.70;98.40;;;;;;4971913;28;20066;-35
2023/06/28 03:56:29;;;;;;;2.95;1.30;;;21.70;98.40;;;;;;4972186;28;20033;-37
2023/06/28 03:58:54;;;;;;;2.47;1.23;;;21.70;98.40;;;;;;4972964;28;20023;-38
2023/06/28 04:01:20;;;;;;;2.88;1.20;;;21.70;98.40;;;;;;4972355;28;20038;-37
2023/06/28 04:03:45;;;;;;;2.03;1.20;;;21.70;98.50;;;;;;4971921;28;20097;-36
2023/06/28 04:06:11;;;;;;;2.97;1.20;;;21.70;98.50;;;;;;4972603;28;20490;-38
2023/06/28 04:08:37;;;;;;;2.33;1.20;;;21.70;98.40;;;;;;4972296;28;20023;-35
2023/06/28 04:11:02;;;;;;;2.83;1.17;;;21.70;98.40;;;;;;4972244;28;20046;-37
2023/06/28 04:13:28;;;;;;;2.42;1.08;;;21.70;98.40;;;;;;4972769;28;20037;-37
2023/06/28 04:15:54;;;;;;;2.17;1.15;;;21.70;98.40;;;;;;4972599;28;20549;-37
2023/06/28 04:18:20;;;;;;;1.33;0.90;;;21.70;98.50;;;;;;4972536;28;20031;-36
2023/06/28 04:20:45;;;;;;;2.45;1.00;;;21.70;98.50;;;;;;4973326;28;20089;-38
2023/06/28 04:23:11;;;;;;;1.85;1.05;;;21.70;98.50;;;;;;4971649;28;20039;-38
2023/06/28 04:25:37;;;;;;;2.15;1.10;;;21.70;98.50;;;;;;4971830;28;20479;-36
2023/06/28 04:28:03;;;;;;;1.77;1.10;;;21.60;98.50;;;;;;4975029;28;20050;-35
2023/06/28 04:30:31;;;;;;;3.03;1.27;;;21.70;98.50;;;;;;4975016;28;20394;-35
2023/06/28 04:32:57;;;;;;;2.97;1.23;;;21.70;98.60;;;;;;4975530;28;20034;-38
2023/06/28 04:35:22;;;;;;;4.25;1.20;;;21.60;98.60;;;;;;4975157;28;20030;-35
2023/06/28 04:37:50;;;;;;;4.30;1.23;;;21.70;98.60;;;;;;4974994;28;20027;-38
2023/06/28 04:40:16;;;;;;;2.85;1.13;;;21.60;98.60;;;;;;4975495;28;20027;-37
2023/06/28 04:42:41;;;;;;;2.15;1.20;;;21.60;98.50;;;;;;4976392;28;20049;-38
2023/06/28 04:45:09;;;;;;;8.45;1.75;;;21.60;98.50;;;;;;4975733;28;20438;-35
2023/06/28 04:47:35;;;;;;;6.18;1.70;;;21.60;96.80;;;;;;4973709;28;20426;-38
2023/06/28 04:50:02;;;;;;;7.40;1.85;;;21.30;96.10;;;;;;4975546;28;20553;-38
2023/06/28 04:52:28;;;;;;;7.95;1.85;;;21.00;96.70;;;;;;4974838;28;20031;-39
2023/06/28 04:54:53;;;;;;;6.57;2.03;;;21.00;96.90;;;;;;4975716;28;20553;-39
2023/06/28 04:57:20;;;;;;;6.28;2.15;;;21.00;96.90;;;;;;4976387;28;20058;-38
2023/06/28 04:59:47;;;;;;;5.63;1.85;;;21.00;97.00;;;;;;4975347;28;20109;-37
2023/06/28 05:02:14;;;;;;;5.85;1.55;;;21.10;97.10;;;;;;4974973;28;20504;-39
2023/06/28 05:04:40;;;;;;;6.18;1.45;;;21.20;97.20;;;;;;4974517;28;20023;-40
2023/06/28 05:07:09;;;;;;;5.63;1.60;;;21.20;97.30;;;;;;4975251;28;20026;-37
2023/06/28 05:09:36;;;;;;;6.95;1.60;;;21.30;97.40;;;;;;4974744;28;20015;-39
2023/06/28 05:12:03;;;;;;;6.10;1.60;;;21.30;97.40;;;;;;4974571;28;20043;-38
2023/06/28 05:14:30;;;;;;;4.53;1.80;;;21.40;97.50;;;;;;4975147;28;20426;-38
2023/06/28 05:16:56;;;;;;;6.30;1.77;;;21.30;97.50;;;;;;4974431;28;20113;-36
2023/06/28 05:19:24;;;;;;;6.47;2.08;;;21.40;97.50;;;;;;4973968;28;20098;-39
2023/06/28 05:21:50;;;;;;;6.18;1.60;;;21.40;97.60;;;;;;4974282;28;20023;-39
2023/06/28 05:24:17;;;;;;;4.95;1.77;;;21.40;97.70;;;;;;4974177;28;20015;-39
2023/06/28 05:26:43;;;;;;;4.85;1.60;;;21.40;97.70;;;;;;4974209;28;20023;-40
2023/06/28 05:29:09;;;;;;;5.60;1.60;;;21.40;98.00;;;;;;4974149;28;20077;-38
2023/06/28 05:31:38;;;;;;;5.93;1.83;;;21.40;97.60;;;;;;4974078;28;20102;-39
2023/06/28 05:34:04;;;;;;;3.88;1.40;;;21.50;97.70;;;;;;4974252;28;20031;-37
2023/06/28 05:36:31;;;;;;;4.55;1.80;;;21.50;97.70;;;;;;4974631;28;20098;-38
2023/06/28 05:38:57;;;;;;;2.20;1.27;;;21.50;97.70;;;;;;4973777;28;20027;-38
2023/06/28 05:41:23;;;;;;;2.95;1.40;;;21.50;97.70;;;;;;4974146;28;20436;-40
2023/06/28 05:43:48;;;;;;;4.05;1.70;;;21.50;97.80;;;;;;4974482;28;20023;-37
2023/06/28 05:46:14;;;;;;;2.58;1.30;;;21.50;97.70;;;;;;4973985;28;20023;-38
2023/06/28 05:48:40;;;;;;;4.68;1.50;;;21.50;97.70;;;;;;4974357;28;20073;-39
2023/06/28 05:51:12;;;;;;;3.00;1.50;;;21.50;97.70;;;;;;4974726;28;20034;-39
2023/06/28 05:53:39;;;;;;;2.03;1.45;;;21.50;97.70;;;;;;4974429;28;20422;-37
2023/06/28 05:56:05;;;;;;;3.83;1.50;;;21.50;97.70;;;;;;4973690;28;20023;-41
2023/06/28 05:58:31;;;;;;;4.47;1.60;;;21.60;97.80;;;;;;4973688;28;20023;-37
2023/06/28 06:00:56;;;;;;;3.80;1.42;;;21.50;97.70;;;;;;4973424;28;20118;-40
2023/06/28 06:03:23;;;;;;;2.75;1.40;;;21.50;97.80;;;;;;4973980;28;20053;-36
2023/06/28 06:05:49;;;;;;;2.53;1.40;;;21.50;97.80;;;;;;4974695;28;20023;-39
2023/06/28 06:08:14;;;;;;;3.95;1.40;;;21.60;97.80;;;;;;4973438;28;20533;-37
2023/06/28 06:10:40;;;;;;;4.68;1.63;;;21.50;97.80;;;;;;4973045;28;20035;-39
2023/06/28 06:13:06;;;;;;;3.67;1.48;;;21.50;97.70;;;;;;4973329;28;20023;-37
2023/06/28 06:15:31;;;;;;;3.60;1.30;;;21.60;97.70;;;;;;4973158;28;20034;-36
2023/06/28 06:17:57;;;;;;;4.63;1.45;;;21.60;97.70;;;;;;4973334;28;20042;-39
2023/06/28 06:20:23;;;;;;;4.95;1.30;;;21.60;97.70;;;;;;4973754;28;20033;-37
2023/06/28 06:22:49;;;;;;;4.75;1.70;;;21.60;97.70;;;;;;4973233;28;20097;-39
2023/06/28 06:25:15;;;;;;;3.90;1.70;;;21.60;97.70;;;;;;4974096;28;20086;-38
2023/06/28 06:27:41;;;;;;;3.85;1.70;;;21.60;98.00;;;;;;4973792;28;20026;-38
2023/06/28 06:30:10;;;;;;;2.70;1.58;;;21.60;97.70;;;;;;4973472;28;20062;-38
2023/06/28 06:32:35;;;;;;;5.35;1.50;;;21.60;97.70;;;;;;4973917;28;20030;-37
2023/06/28 06:35:01;;;;;;;3.45;1.55;;;21.60;97.70;;;;;;4973289;28;20031;-39
2023/06/28 06:37:27;;;;;;;4.60;1.55;;;21.60;97.70;;;;;;4973246;28;20442;-39
2023/06/28 06:39:55;;;;;;;3.78;1.58;;;21.60;97.70;;;;;;4973284;28;20034;-37
2023/06/28 06:42:21;;;;;;;8.20;1.88;;;21.70;97.70;;;;;;4973472;28;20062;-37
2023/06/28 06:44:47;;;;;;;13.50;1.83;;;21.60;95.50;;;;;;4973370;28;20046;-37
2023/06/28 06:47:12;;;;;;;5.60;2.00;;;21.30;95.60;;;;;;4973121;28;20061;-39
2023/06/28 06:49:38;;;;;;;6.22;1.52;;;21.30;96.00;;;;;;4973454;28;20019;-40
2023/06/28 06:52:04;;;;;;;7.07;1.70;;;21.30;96.10;;;;;;4973316;28;20027;-39
2023/06/28 06:54:30;;;;;;;5.95;1.90;;;21.30;96.30;;;;;;4972583;28;20126;-39
2023/06/28 06:56:57;;;;;;;5.22;1.60;;;21.30;96.40;;;;;;4973087;28;20093;-39
2023/06/28 06:59:23;;;;;;;4.55;1.50;;;21.40;96.60;;;;;;4973680;28;20054;-39
2023/06/28 07:01:53;;;;;;;4.55;1.60;;;21.40;96.70;;;;;;4972459;28;20125;-38
2023/06/28 07:04:21;;;;;;;6.57;1.70;;;21.40;96.70;;;;;;4973736;28;20027;-39
2023/06/28 07:06:48;;;;;;;6.60;1.92;;;21.40;96.80;;;;;;4972661;28;20026;-37
2023/06/28 07:09:15;;;;;;;5.35;1.30;;;21.50;96.90;;;;;;4974471;28;20108;-38
2023/06/28 07:11:41;;;;;;;3.85;1.42;;;21.50;97.20;;;;;;4974147;28;20099;-39
2023/06/28 07:14:07;;;;;;;6.30;1.90;;;21.50;97.00;;;;;;4972367;28;20034;-38
2023/06/28 07:16:32;;;;;;;3.83;1.48;;;21.50;97.00;;;;;;4973434;28;20508;-39
2023/06/28 07:18:58;;;;;;;3.50;1.33;;;21.50;97.00;;;;;;4971953;28;20035;-39
2023/06/28 07:21:23;;;;;;;4.55;1.35;;;21.50;97.00;;;;;;4972883;28;20113;-39
2023/06/28 07:23:49;;;;;;;3.90;1.27;;;21.50;97.00;;;;;;4972259;28;20038;-39
2023/06/28 07:26:15;;;;;;;3.33;1.30;;;21.50;97.10;;;;;;4972815;28;20049;-39
2023/06/28 07:28:41;;;;;;;2.17;1.05;;;21.50;97.10;;;;;;4972398;28;20030;-38
2023/06/28 07:31:07;;;;;;;3.75;1.55;;;21.50;97.10;;;;;;4972846;28;20060;-37
2023/06/28 07:33:32;;;;;;;2.55;1.33;;;21.60;97.10;;;;;;4972251;28;20529;-39
2023/06/28 07:35:58;;;;;;;3.17;1.10;;;21.50;97.10;;;;;;4972565;28;20502;-37
2023/06/28 07:38:24;;;;;;;6.35;1.52;;;21.60;97.10;;;;;;4972202;28;20027;-39
2023/06/28 07:40:50;;;;;;;3.20;1.42;;;21.60;97.10;;;;;;4971493;28;20368;-39
2023/06/28 07:43:18;;;;;;;3.47;1.40;;;21.60;97.50;;;;;;4972072;28;20027;-40
2023/06/28 07:45:43;;;;;;;2.65;1.10;;;21.60;97.10;;;;;;4973982;28;20402;-37
2023/06/28 07:48:09;;;;;;;2.53;1.15;;;21.60;97.20;;;;;;4972839;28;20019;-37
2023/06/28 07:50:36;;;;;;;2.83;1.30;;;21.60;97.10;;;;;;4972695;28;20105;-40
2023/06/28 07:53:02;;;;;;;5.78;1.42;;;21.60;97.20;;;;;;4972210;28;20409;-39
2023/06/28 07:55:28;;;;;;;3.75;1.20;;;21.60;97.20;;;;;;4972022;28;20502;-37
2023/06/28 07:57:57;;;;;;;3.53;1.40;;;21.60;97.20;;;;;;4973287;28;20031;-39
2023/06/28 08:00:24;;;;;;;2.72;1.20;;;21.60;97.20;;;;;;4973011;28;20039;-37
2023/06/28 08:02:49;;;;;;;4.50;1.42;;;21.60;97.20;;;;;;4976366;28;20556;-37
2023/06/28 08:05:15;;;;;;;2.28;1.10;;;21.60;97.20;;;;;;4977275;28;20030;-37
2023/06/28 08:07:41;;;;;;;2.80;1.30;;;21.70;97.20;;;;;;4975903;28;20027;-39
2023/06/28 08:10:08;;;;;;;2.97;1.25;;;21.60;97.20;;;;;;4975336;28;20031;-37
2023/06/28 08:12:33;;;;;;;1.95;1.40;;;21.70;97.20;;;;;;4976575;28;20034;-37
2023/06/28 08:14:59;;;;;;;2.00;1.10;;;21.60;97.20;;;;;;4976333;28;20030;-38
2023/06/28 08:17:25;;;;;;;2.75;1.15;;;21.70;97.20;;;;;;4975540;28;20038;-37
2023/06/28 08:19:50;;;;;;;3.45;1.33;;;21.70;97.20;;;;;;4976206;28;20027;-39
2023/06/28 08:22:16;;;;;;;2.75;1.05;;;21.70;97.20;;;;;;4976240;28;20034;-39
2023/06/28 08:24:42;;;;;;;3.03;1.20;;;21.70;97.20;;;;;;4975963;28;20393;-38
2023/06/28 08:27:07;;;;;;;3.08;1.40;;;21.60;97.20;;;;;;4975630;28;20023;-39
2023/06/28 08:29:33;;;;;;;2.65;1.20;;;21.70;97.50;;;;;;4975105;28;20034;-37
2023/06/28 08:31:59;;;;;;;2.80;1.45;;;21.70;97.20;;;;;;4975502;28;20026;-39
2023/06/28 08:34:24;;;;;;;2.50;1.30;;;21.70;97.20;;;;;;4975113;28;20371;-37
2023/06/28 08:36:50;;;;;;;1.73;1.00;;;21.70;97.30;;;;;;4975317;28;20058;-38
2023/06/28 08:39:16;;;;;;;5.00;1.05;;;21.70;97.30;;;;;;4975505;28;20022;-37
2023/06/28 08:41:43;;;;;;;4.32;1.35;;;21.70;97.30;;;;;;4975030;28;20031;-39
2023/06/28 08:44:12;;;;;;;2.75;1.38;;;21.70;97.30;;;;;;4974948;28;20037;-37
2023/06/28 08:46:42;;;;;;;2.17;1.13;;;21.70;97.30;;;;;;4974996;28;20549;-39
2023/06/28 08:49:08;;;;;;;2.50;1.08;;;21.70;97.30;;;;;;4974847;28;20029;-39
2023/06/28 08:51:34;;;;;;;4.82;1.50;;;21.70;97.30;;;;;;4974903;28;20397;-38
2023/06/28 08:54:00;;;;;;;2.67;1.10;;;21.70;97.30;;;;;;4974946;28;20037;-40
2023/06/28 08:56:27;;;;;;;2.15;1.25;;;21.70;97.40;;;;;;4975115;28;20035;-39
2023/06/28 08:58:54;;;;;;;2.10;1.08;;;21.70;97.40;;;;;;4974634;28;20030;-39
2023/06/28 09:01:22;;;;;;;2.33;1.20;;;21.70;97.40;;;;;;4974828;28;20057;-39
2023/06/28 09:03:48;;;;;;;3.08;1.05;;;21.70;97.40;;;;;;4976388;28;20054;-39
2023/06/28 09:06:14;;;;;;;1.50;0.98;;;21.70;97.40;;;;;;4975409;28;20181;-39
2023/06/28 09:08:45;;;;;;;2.58;1.08;;;21.70;97.40;;;;;;4975569;28;20065;-37
2023/06/28 09:11:11;;;;;;;2.13;1.10;;;21.70;97.40;;;;;;4975872;28;20027;-37
2023/06/28 09:13:38;;;;;;;2.72;1.10;;;21.70;97.50;;;;;;4973934;28;20597;-38
2023/06/28 09:16:08;;;;;;;1.70;0.90;;;21.70;97.40;;;;;;4975531;28;20398;-40
2023/06/28 09:18:34;;;;;;;1.77;0.88;;;21.70;97.40;;;;;;4974816;28;20476;-36
2023/06/28 09:21:00;;;;;;;2.70;0.88;;;21.70;97.40;;;;;;4974522;28;20035;-38
2023/06/28 09:23:27;;;;;;;7.25;1.90;;;21.70;97.40;;;;;;4974567;28;20019;-39
2023/06/28 09:25:54;;;;;;;6.03;1.70;;;21.60;95.80;;;;;;4974262;28;20077;-37
2023/06/28 09:28:22;;;;;;;5.97;1.95;;;21.60;96.00;;;;;;4974320;28;20423;-39
2023/06/28 09:30:52;;;;;;;6.28;1.63;;;21.70;96.30;;;;;;4974611;28;20049;-37
2023/06/28 09:33:19;;;;;;;5.47;1.60;;;21.70;96.40;;;;;;4974070;28;20046;-38
2023/06/28 09:35:44;;;;;;;6.63;1.60;;;21.70;96.50;;;;;;4974134;28;20390;-40
2023/06/28 09:38:10;;;;;;;3.58;1.55;;;21.70;96.50;;;;;;4974001;28;20034;-39
2023/06/28 09:40:36;;;;;;;6.57;1.50;;;21.70;96.50;;;;;;4975198;28;20045;-39
2023/06/28 09:43:02;;;;;;;5.72;1.55;;;21.70;96.50;;;;;;4973867;28;20030;-37
2023/06/28 09:45:30;;;;;;;6.10;1.35;;;21.80;96.60;;;;;;4973912;28;20027;-38
2023/06/28 09:47:57;;;;;;;3.85;1.50;;;21.80;96.60;;;;;;4973735;28;20023;-40
2023/06/28 09:50:38;;;;;;;6.93;1.70;;;21.80;96.70;;;;;;4973501;28;20023;-38
2023/06/28 09:53:15;;;;;;;5.07;1.48;;;21.80;96.70;;;;;;4974280;28;20038;-40
2023/06/28 09:55:43;;;;;;;3.67;1.45;;;21.80;96.70;;;;;;4972430;28;20390;-37
2023/06/28 09:58:11;;;;;;;4.75;1.60;;;21.80;96.70;;;;;;4974072;28;20050;-39
2023/06/28 10:00:38;;;;;;;3.15;1.30;;;21.80;96.70;;;;;;4973713;28;20030;-39
2023/06/28 10:03:06;;;;;;;4.13;1.42;;;21.80;96.70;;;;;;4974273;28;20035;-39
2023/06/28 10:05:35;;;;;;;3.63;1.30;;;21.80;96.80;;;;;;4974199;28;20372;-38
2023/06/28 10:08:04;;;;;;;3.72;1.50;;;21.80;96.80;;;;;;4974041;28;20517;-39
2023/06/28 10:10:31;;;;;;;4.63;1.60;;;21.80;96.80;;;;;;4974412;28;20027;-39
2023/06/28 10:12:59;;;;;;;2.90;1.60;;;21.90;96.80;;;;;;4973317;28;20110;-36
2023/06/28 10:15:25;;;;;;;3.38;1.40;;;21.90;96.80;;;;;;4975654;28;20038;-38
2023/06/28 10:17:51;;;;;;;4.05;1.17;;;21.90;96.80;;;;;;4974176;28;20050;-38
2023/06/28 10:20:17;;;;;;;3.80;1.48;;;21.90;96.80;;;;;;4973914;28;20023;-40
2023/06/28 10:22:44;;;;;;;1.90;1.20;;;21.90;96.80;;;;;;4973304;28;20435;-38
2023/06/28 10:25:11;;;;;;;2.72;1.13;;;21.90;96.80;;;;;;4972268;28;20027;-38
2023/06/28 10:27:37;;;;;;;2.63;1.10;;;21.90;96.80;;;;;;4974084;28;20045;-38
2023/06/28 10:30:03;;;;;;;4.80;1.40;;;21.90;96.80;;;;;;4972990;28;20478;-38
2023/06/28 10:32:29;;;;;;;2.33;1.02;;;21.90;96.80;;;;;;4973567;28;20049;-39
2023/06/28 10:34:59;;;;;;;1.65;1.20;;;21.90;96.80;;;;;;4972872;28;20023;-38
2023/06/28 10:37:25;;;;;;;3.00;1.40;;;22.00;96.90;;;;;;4972980;28;20474;-38
2023/06/28 10:39:52;;;;;;;4.05;1.50;;;21.90;96.90;;;;;;4972850;28;20113;-39
2023/06/28 10:42:21;;;;;;;2.38;1.23;;;22.00;96.90;;;;;;4972746;28;20483;-37
2023/06/28 10:44:51;;;;;;;2.25;0.93;;;22.00;96.90;;;;;;4972751;28;20023;-36
2023/06/28 10:47:17;;;;;;;2.42;1.15;;;22.00;96.90;;;;;;4972924;28;20030;-39
2023/06/28 10:50:03;;;;;;;2.63;1.30;;;22.00;96.90;;;;;;4972614;28;20246;-39
2023/06/28 10:52:28;;;;;;;2.35;1.13;;;22.00;96.90;;;;;;4973120;28;20586;-37
2023/06/28 10:54:54;;;;;;;2.30;1.13;;;22.00;96.90;;;;;;4972900;28;20121;-39
2023/06/28 10:57:35;;;;;;;4.15;1.33;;;22.00;96.90;;;;;;4973768;28;20027;-39
2023/06/28 11:00:09;;;;;;;2.90;1.10;;;22.00;96.90;;;;;;4972526;28;20034;-36
2023/06/28 11:02:51;;;;;;;;;;;22.00;97.20;;;;;;4972907;28;20453;-38
2023/06/28 11:05:45;;;;;;;3.28;1.38;;;22.00;96.90;;;;;;4973337;28;19945;-39
2023/06/28 11:08:11;;;;;;;2.17;1.20;;;22.00;97.00;;;;;;4972634;28;20027;-39
2023/06/28 11:10:38;;;;;;;5.63;1.30;;;22.00;97.00;;;;;;4972318;28;20324;-38
2023/06/28 11:13:08;;;;;;;2.30;1.20;;;22.00;97.00;;;;;;4972833;28;20049;-38
2023/06/28 11:15:34;;;;;;;1.95;1.08;;;22.00;97.00;;;;;;4972363;28;20027;-39
2023/06/28 11:18:16;;;;;;;2.30;1.08;;;22.00;97.00;;;;;;4972810;28;20110;-39
2023/06/28 11:20:56;;;;;;;2.20;1.17;;;22.00;97.00;;;;;;4973294;28;20158;-36
2023/06/28 11:23:29;;;;;;;2.67;1.20;;;22.00;97.00;;;;;;4972440;28;20102;-37
2023/06/28 11:26:01;;;;;;;4.53;1.20;;;22.00;97.30;;;;;;4972379;28;20034;-38
2023/06/28 11:28:32;;;;;;;1.35;1.00;;;22.00;97.00;;;;;;4972414;28;20027;-39
2023/06/28 11:31:14;;;;;;;2.85;1.20;;;22.00;97.00;;;;;;4972380;28;20049;-38
2023/06/28 11:33:41;;;;;;;1.50;0.98;;;22.10;97.10;;;;;;4973062;28;20026;-37
2023/06/28 11:36:08;;;;;;;2.60;1.13;;;22.00;97.00;;;;;;4974478;28;20039;-40
2023/06/28 11:38:35;;;;;;;2.05;1.00;;;22.00;97.00;;;;;;4976067;28;20479;-38
2023/06/28 11:41:00;;;;;;;2.95;0.95;;;22.00;97.00;;;;;;4975935;28;20026;-38
2023/06/28 11:43:26;;;;;;;1.85;1.20;;;22.00;97.40;;;;;;4976354;28;20029;-39
2023/06/28 11:45:52;;;;;;;6.70;1.52;;;22.00;97.00;;;;;;4976331;28;20034;-39
2023/06/28 11:48:21;;;;;;;7.68;1.60;;;22.00;96.50;;;;;;4976027;28;20478;-39
2023/06/28 11:50:58;;;;;;;8.77;1.90;;;22.10;95.90;;;;;;4976487;28;20026;-38
2023/06/28 11:53:26;;;;;;;5.03;1.60;;;22.10;95.80;;;;;;4976399;28;20109;-38
2023/06/28 11:55:53;;;;;;;4.43;1.52;;;22.10;95.80;;;;;;4975900;28;20031;-38
2023/06/28 11:58:33;;;;;;;5.38;1.80;;;22.10;95.80;;;;;;4976474;28;20033;-39
2023/06/28 12:01:00;;;;;;;6.90;1.60;;;22.10;95.80;;;;;;4975972;28;20078;-38
2023/06/28 12:03:43;;;;;;;5.22;1.75;;;22.10;95.80;;;;;;4976035;28;20445;-40
2023/06/28 12:06:10;;;;;;;2.92;1.35;;;22.10;95.90;;;;;;4975858;28;20026;-38
2023/06/28 12:08:38;;;;;;;4.00;1.40;;;22.10;95.90;;;;;;4975888;28;20130;-40
2023/06/28 12:11:13;;;;;;;3.72;1.70;;;22.10;95.90;;;;;;4975639;28;20031;-38
2023/06/28 12:13:39;;;;;;;5.00;1.70;;;22.10;96.00;;;;;;4975615;28;20516;-39
2023/06/28 12:16:16;;;;;;;5.97;1.60;;;22.10;96.00;;;;;;4975692;28;20070;-37
2023/06/28 12:18:53;;;;;;;3.58;1.20;;;22.10;96.10;;;;;;4976289;28;20045;-37
2023/06/28 12:21:24;;;;;;;3.90;1.58;;;22.10;96.10;;;;;;4976119;28;20439;-39
2023/06/28 12:23:51;;;;;;;3.08;1.30;;;22.10;96.10;;;;;;4976160;28;20019;-38
2023/06/28 12:26:17;;;;;;;3.28;1.55;;;22.10;96.10;;;;;;4975440;28;20081;-39
2023/06/28 12:28:48;;;;;;;3.00;1.23;;;22.10;96.20;;;;;;4976419;28;20759;-38
2023/06/28 12:31:15;;;;;;;3.17;1.50;;;22.10;96.20;;;;;;4975366;28;20027;-40
2023/06/28 12:33:41;;;;;;;3.00;1.45;;;22.10;96.20;;;;;;4975257;28;20030;-39
2023/06/28 12:36:11;;;;;;;5.38;1.50;;;22.20;96.30;;;;;;4975746;28;20027;-39
2023/06/28 12:38:43;;;;;;;3.78;1.20;;;22.20;96.30;;;;;;4975298;28;20114;-37
2023/06/28 12:41:08;;;;;;;2.40;1.20;;;22.20;96.30;;;;;;4974869;28;20549;-38
2023/06/28 12:43:34;;;;;;;4.90;1.60;;;22.20;96.30;;;;;;4974050;28;20121;-39
2023/06/28 12:46:03;;;;;;;2.92;1.20;;;22.10;96.30;;;;;;4975176;28;20066;-39